createdAt,value
2022-12-31T00:00:17.815Z,998.7
2022-12-31T00:01:19.756Z,998.7
2022-12-31T00:02:21.784Z,998.7
2022-12-31T00:03:23.811Z,998.6
2022-12-31T00:04:24.622Z,998.6
2022-12-31T00:05:26.721Z,998.6
2022-12-31T00:06:28.632Z,998.6
2022-12-31T00:08:31.643Z,998.6
2022-12-31T00:09:32.656Z,998.6
2022-12-31T00:10:33.716Z,998.5
2022-12-31T00:11:35.770Z,998.5
2022-12-31T00:12:37.055Z,998.5
2022-12-31T00:13:38.708Z,998.5
2022-12-31T00:14:40.695Z,998.6
2022-12-31T00:15:42.790Z,998.6
2022-12-31T00:16:44.658Z,998.6
2022-12-31T00:17:46.764Z,998.7
2022-12-31T00:18:48.693Z,998.6
2022-12-31T00:19:50.668Z,998.6
2022-12-31T00:20:51.695Z,998.6
2022-12-31T00:21:52.635Z,998.6
2022-12-31T00:22:53.836Z,998.6
2022-12-31T00:23:55.713Z,998.5
2022-12-31T00:24:57.716Z,998.6
2022-12-31T00:25:58.726Z,998.5
2022-12-31T00:27:00.786Z,998.5
2022-12-31T00:28:02.684Z,998.5
2022-12-31T00:29:03.657Z,998.5
2022-12-31T00:30:05.755Z,998.5
2022-12-31T00:31:07.780Z,998.6
2022-12-31T00:32:09.601Z,998.5
2022-12-31T00:33:10.694Z,998.5
2022-12-31T00:34:11.696Z,998.5
2022-12-31T00:35:13.795Z,998.5
2022-12-31T00:36:15.998Z,997.9
2022-12-31T00:37:17.703Z,998.3
2022-12-31T00:38:19.757Z,998.4
2022-12-31T00:39:21.764Z,998.4
2022-12-31T00:40:23.807Z,998.4
2022-12-31T00:41:25.700Z,998.4
2022-12-31T00:42:27.783Z,998.4
2022-12-31T00:43:29.760Z,998.5
2022-12-31T00:44:31.659Z,998.5
2022-12-31T00:45:33.767Z,998.5
2022-12-31T00:47:36.701Z,998.6
2022-12-31T00:48:37.675Z,998.6
2022-12-31T00:49:38.675Z,998.6
2022-12-31T00:50:39.794Z,998.7
2022-12-31T00:51:41.697Z,998.7
2022-12-31T00:52:43.689Z,998.7
2022-12-31T00:53:45.696Z,998.7
2022-12-31T00:54:46.883Z,998.7
2022-12-31T00:55:48.859Z,998.7
2022-12-31T00:56:50.666Z,998.7
2022-12-31T00:57:52.758Z,998.7
2022-12-31T00:58:54.717Z,998.8
2022-12-31T00:59:56.696Z,998.8
2022-12-31T01:00:57.830Z,998.8
2022-12-31T01:01:59.854Z,998.8
2022-12-31T01:03:01.814Z,998.8
2022-12-31T01:04:03.754Z,998.7
2022-12-31T01:05:05.775Z,998.8
2022-12-31T01:06:07.796Z,998.8
2022-12-31T01:07:09.861Z,998.8
2022-12-31T01:08:11.710Z,998.8
2022-12-31T01:09:13.890Z,998.8
2022-12-31T01:10:15.815Z,998.8
2022-12-31T01:11:17.754Z,998.8
2022-12-31T01:12:19.794Z,998.8
2022-12-31T01:13:22.083Z,998.8
2022-12-31T01:14:23.836Z,998.8
2022-12-31T01:15:25.904Z,998.8
2022-12-31T01:16:27.735Z,998.9
2022-12-31T01:17:29.794Z,998.8
2022-12-31T01:18:31.717Z,998.8
2022-12-31T01:19:33.791Z,998.8
2022-12-31T01:20:35.818Z,998.8
2022-12-31T01:21:38.451Z,998.7
2022-12-31T01:22:39.795Z,998.7
2022-12-31T01:23:41.756Z,998.6
2022-12-31T01:24:43.675Z,998.7
2022-12-31T01:25:44.864Z,998.7
2022-12-31T01:26:46.822Z,998.6
2022-12-31T01:27:48.736Z,998.6
2022-12-31T01:28:50.782Z,998.6
2022-12-31T01:29:52.814Z,998.6
2022-12-31T01:30:54.749Z,998.6
2022-12-31T01:31:55.816Z,998.5
2022-12-31T01:32:57.715Z,998.6
2022-12-31T01:33:59.747Z,998.3
2022-12-31T01:35:01.907Z,998.5
2022-12-31T01:36:03.755Z,998.6
2022-12-31T01:37:05.696Z,998.6
2022-12-31T01:38:06.735Z,998.6
2022-12-31T01:39:08.757Z,998.6
2022-12-31T01:40:10.843Z,998.6
2022-12-31T01:41:12.818Z,998.6
2022-12-31T01:42:14.905Z,998.7
2022-12-31T01:43:16.995Z,998.8
2022-12-31T01:44:18.803Z,998.8
2022-12-31T01:45:21.028Z,998.3
2022-12-31T01:46:22.981Z,998.7
2022-12-31T01:47:24.763Z,998.9
2022-12-31T01:48:26.808Z,998.9
2022-12-31T01:49:28.755Z,998.9
2022-12-31T01:50:30.774Z,998.9
2022-12-31T01:51:32.811Z,998.9
2022-12-31T01:52:34.796Z,999
2022-12-31T01:53:40.686Z,999
2022-12-31T01:54:38.754Z,999
2022-12-31T01:55:41.099Z,998.7
2022-12-31T01:56:42.774Z,999
2022-12-31T01:57:44.841Z,999.1
2022-12-31T01:58:46.703Z,999.1
2022-12-31T01:59:47.765Z,999.1
2022-12-31T02:00:49.896Z,999.1
2022-12-31T02:01:51.971Z,999.1
2022-12-31T02:02:54.179Z,999.1
2022-12-31T02:06:54.152Z,999
2022-12-31T02:07:55.833Z,999
2022-12-31T02:08:57.795Z,999.1
2022-12-31T02:09:59.774Z,999.1
2022-12-31T02:11:01.857Z,999.1
2022-12-31T02:12:03.738Z,999.1
2022-12-31T02:13:04.756Z,999.2
2022-12-31T02:14:05.770Z,999.2
2022-12-31T02:15:06.839Z,999.2
2022-12-31T02:16:08.842Z,999.2
2022-12-31T02:17:10.832Z,999.3
2022-12-31T02:18:12.834Z,999.3
2022-12-31T02:19:14.813Z,999.3
2022-12-31T02:20:16.774Z,999.2
2022-12-31T02:21:18.735Z,999.2
2022-12-31T02:22:19.714Z,999.1
2022-12-31T02:23:20.792Z,999.1
2022-12-31T02:24:22.807Z,999.1
2022-12-31T02:25:24.756Z,999.1
2022-12-31T02:26:25.754Z,999.1
2022-12-31T02:27:27.837Z,998.8
2022-12-31T02:28:29.709Z,999
2022-12-31T02:29:31.816Z,999
2022-12-31T02:30:33.821Z,999.1
2022-12-31T02:31:35.835Z,999.1
2022-12-31T02:32:37.803Z,999.2
2022-12-31T02:33:39.773Z,999.1
2022-12-31T02:34:40.753Z,999.1
2022-12-31T02:35:42.796Z,999.1
2022-12-31T02:36:44.802Z,999.1
2022-12-31T02:37:46.785Z,999.1
2022-12-31T02:38:48.780Z,999.1
2022-12-31T02:39:50.794Z,999.1
2022-12-31T02:40:52.875Z,999.1
2022-12-31T02:41:54.723Z,999.2
2022-12-31T02:42:55.966Z,999.2
2022-12-31T02:43:56.751Z,999.1
2022-12-31T02:44:58.754Z,999.2
2022-12-31T02:45:59.771Z,999.2
2022-12-31T02:47:00.827Z,999.3
2022-12-31T02:48:02.751Z,999.3
2022-12-31T02:49:04.791Z,999.3
2022-12-31T02:50:06.831Z,998.7
2022-12-31T02:51:08.776Z,999.2
2022-12-31T02:52:10.763Z,999.3
2022-12-31T02:53:11.718Z,999.3
2022-12-31T02:54:13.834Z,999.3
2022-12-31T02:55:15.814Z,999.3
2022-12-31T02:56:17.755Z,999.3
2022-12-31T02:57:19.835Z,999.2
2022-12-31T02:58:21.896Z,999.2
2022-12-31T02:59:23.865Z,999.2
2022-12-31T03:00:25.933Z,999.1
2022-12-31T03:01:27.939Z,999.1
2022-12-31T03:02:29.946Z,999.2
2022-12-31T03:03:30.765Z,999.2
2022-12-31T03:04:31.823Z,999.1
2022-12-31T03:05:33.763Z,999.2
2022-12-31T03:06:34.885Z,999.1
2022-12-31T03:07:36.793Z,999.2
2022-12-31T03:08:38.705Z,999.2
2022-12-31T03:09:39.814Z,999.2
2022-12-31T03:10:41.789Z,999.2
2022-12-31T03:11:43.868Z,999.2
2022-12-31T03:12:45.783Z,999.3
2022-12-31T03:13:47.758Z,999.3
2022-12-31T03:14:49.794Z,999.3
2022-12-31T03:15:51.901Z,999.3
2022-12-31T03:16:54.288Z,999.3
2022-12-31T03:17:55.774Z,999.3
2022-12-31T03:18:57.734Z,999.3
2022-12-31T03:19:58.738Z,999.4
2022-12-31T03:20:59.743Z,999.4
2022-12-31T03:22:00.855Z,999.3
2022-12-31T03:23:02.755Z,999.3
2022-12-31T03:24:03.878Z,999.3
2022-12-31T03:25:05.774Z,999
2022-12-31T03:26:06.859Z,999.3
2022-12-31T03:27:08.795Z,999.3
2022-12-31T03:28:10.878Z,999.3
2022-12-31T03:29:12.743Z,999.3
2022-12-31T03:30:13.832Z,999.3
2022-12-31T03:31:15.862Z,999.3
2022-12-31T03:32:17.842Z,999.5
2022-12-31T03:33:19.824Z,999.4
2022-12-31T03:34:21.854Z,999.5
2022-12-31T03:35:23.863Z,999.5
2022-12-31T03:36:25.836Z,999.5
2022-12-31T03:37:27.816Z,999.5
2022-12-31T03:38:29.875Z,999.6
2022-12-31T03:39:31.815Z,999.6
2022-12-31T03:40:34.134Z,999.6
2022-12-31T03:41:35.834Z,999.6
2022-12-31T03:42:37.775Z,999.7
2022-12-31T03:43:38.818Z,999.7
2022-12-31T03:44:40.756Z,999.7
2022-12-31T03:45:42.805Z,999.7
2022-12-31T03:46:44.811Z,999.6
2022-12-31T03:47:46.805Z,999.7
2022-12-31T03:48:48.784Z,999.7
2022-12-31T03:49:50.816Z,999.7
2022-12-31T03:50:52.850Z,999.7
2022-12-31T03:51:54.845Z,999.7
2022-12-31T03:52:56.816Z,999.7
2022-12-31T03:53:58.869Z,999.7
2022-12-31T03:55:00.774Z,999.7
2022-12-31T03:56:02.819Z,999.8
2022-12-31T03:57:04.835Z,999.7
2022-12-31T03:58:06.833Z,999.7
2022-12-31T03:59:08.901Z,999.6
2022-12-31T04:00:10.834Z,999.6
2022-12-31T04:01:12.880Z,999.6
2022-12-31T04:02:15.009Z,999.6
2022-12-31T04:03:16.944Z,999.6
2022-12-31T04:04:18.859Z,999.5
2022-12-31T04:05:20.769Z,999.5
2022-12-31T04:06:21.737Z,999.5
2022-12-31T04:07:22.855Z,999.5
2022-12-31T04:08:24.836Z,999.5
2022-12-31T04:09:26.824Z,999.5
2022-12-31T04:10:28.857Z,999.5
2022-12-31T04:11:30.918Z,999.4
2022-12-31T04:12:32.867Z,999.5
2022-12-31T04:13:34.870Z,999.4
2022-12-31T04:14:36.814Z,999.4
2022-12-31T04:15:38.882Z,999.4
2022-12-31T04:16:40.826Z,999.5
2022-12-31T04:17:42.937Z,999.5
2022-12-31T04:18:44.965Z,999.4
2022-12-31T04:19:46.861Z,999.5
2022-12-31T04:20:48.852Z,999.4
2022-12-31T04:21:50.860Z,999.4
2022-12-31T04:22:53.193Z,999.3
2022-12-31T04:23:54.794Z,999.3
2022-12-31T04:24:55.795Z,999.3
2022-12-31T04:25:56.796Z,999.2
2022-12-31T04:27:00.825Z,999.2
2022-12-31T04:27:59.837Z,999.2
2022-12-31T04:29:01.874Z,999.1
2022-12-31T04:30:03.881Z,999.2
2022-12-31T04:31:05.894Z,999.2
2022-12-31T04:32:07.888Z,999.2
2022-12-31T04:33:08.858Z,999.2
2022-12-31T04:34:10.867Z,999.2
2022-12-31T04:35:12.820Z,999.2
2022-12-31T04:36:14.804Z,999.2
2022-12-31T04:37:16.857Z,999.3
2022-12-31T04:38:18.997Z,999.3
2022-12-31T04:39:20.828Z,999.3
2022-12-31T04:40:22.857Z,999.4
2022-12-31T04:41:25.361Z,999.5
2022-12-31T04:42:26.955Z,999.5
2022-12-31T04:43:29.354Z,999.6
2022-12-31T04:44:30.878Z,999.6
2022-12-31T04:45:32.865Z,999.6
2022-12-31T04:46:34.841Z,999.5
2022-12-31T04:47:36.894Z,999.6
2022-12-31T04:48:38.843Z,999.6
2022-12-31T04:49:40.907Z,999.6
2022-12-31T04:50:47.954Z,999.5
2022-12-31T04:51:49.787Z,999.5
2022-12-31T04:52:51.877Z,999.6
2022-12-31T04:53:53.875Z,999.5
2022-12-31T04:54:55.844Z,999.4
2022-12-31T04:55:57.823Z,999.3
2022-12-31T04:56:59.832Z,999.4
2022-12-31T04:58:01.902Z,999.4
2022-12-31T04:59:03.922Z,999.4
2022-12-31T05:00:05.978Z,999.4
2022-12-31T05:01:07.920Z,999.4
2022-12-31T05:02:09.983Z,999.4
2022-12-31T05:03:11.846Z,999.4
2022-12-31T05:04:13.836Z,999.4
2022-12-31T05:05:15.902Z,999.4
2022-12-31T05:06:17.859Z,999.4
2022-12-31T05:07:19.857Z,999.4
2022-12-31T05:08:21.817Z,999.4
2022-12-31T05:09:23.855Z,999.3
2022-12-31T05:10:25.797Z,999.4
2022-12-31T05:11:26.815Z,999.4
2022-12-31T05:12:28.847Z,999.5
2022-12-31T05:13:33.261Z,999.4
2022-12-31T05:14:31.803Z,999.3
2022-12-31T05:15:33.828Z,999.4
2022-12-31T05:16:35.876Z,999.3
2022-12-31T05:17:37.877Z,999.4
2022-12-31T05:18:39.840Z,999.3
2022-12-31T05:19:41.925Z,999.3
2022-12-31T05:20:43.864Z,999.4
2022-12-31T05:21:45.875Z,999.4
2022-12-31T05:22:47.787Z,999.4
2022-12-31T05:23:48.779Z,999.4
2022-12-31T05:24:49.832Z,999.4
2022-12-31T05:25:50.898Z,999.4
2022-12-31T05:26:52.883Z,999.4
2022-12-31T05:27:54.856Z,999.4
2022-12-31T05:28:56.895Z,999.5
2022-12-31T05:29:58.809Z,999.4
2022-12-31T05:30:59.957Z,999.5
2022-12-31T05:32:01.506Z,999.5
2022-12-31T05:33:03.205Z,999.5
2022-12-31T05:34:04.843Z,999.5
2022-12-31T05:35:06.914Z,999
2022-12-31T05:36:08.863Z,999.3
2022-12-31T05:37:09.798Z,999.5
2022-12-31T05:38:10.856Z,999.5
2022-12-31T05:39:13.096Z,999.5
2022-12-31T05:40:14.904Z,999.6
2022-12-31T05:41:16.888Z,999.6
2022-12-31T05:42:18.877Z,999.6
2022-12-31T05:43:20.799Z,999.5
2022-12-31T05:44:21.872Z,999.5
2022-12-31T05:45:28.579Z,999.4
2022-12-31T05:46:25.837Z,999.5
2022-12-31T05:47:27.855Z,999.4
2022-12-31T05:48:29.945Z,999.4
2022-12-31T05:49:32.015Z,999.4
2022-12-31T05:50:33.937Z,999.3
2022-12-31T05:51:35.930Z,999.4
2022-12-31T05:52:38.878Z,999.4
2022-12-31T05:53:40.156Z,999.5
2022-12-31T05:54:41.965Z,999.5
2022-12-31T05:55:43.895Z,999.5
2022-12-31T05:56:45.835Z,999.5
2022-12-31T05:57:47.898Z,999.6
2022-12-31T05:58:49.975Z,999.6
2022-12-31T05:59:51.996Z,999.6
2022-12-31T06:00:53.846Z,999.6
2022-12-31T06:01:55.860Z,999.5
2022-12-31T06:02:58.010Z,999.5
2022-12-31T06:03:59.969Z,999.5
2022-12-31T06:05:01.919Z,999.5
2022-12-31T06:06:03.879Z,999.5
2022-12-31T06:07:05.930Z,999.4
2022-12-31T06:08:07.867Z,999.5
2022-12-31T06:09:08.898Z,999.5
2022-12-31T06:10:10.876Z,999.6
2022-12-31T06:11:12.935Z,999.5
2022-12-31T06:12:14.867Z,999.6
2022-12-31T06:13:16.881Z,999.5
2022-12-31T06:14:18.917Z,999.5
2022-12-31T06:15:20.881Z,999.5
2022-12-31T06:16:22.961Z,999.5
2022-12-31T06:17:24.860Z,999.5
2022-12-31T06:18:26.837Z,999.5
2022-12-31T06:19:27.856Z,999.5
2022-12-31T06:20:30.859Z,999.5
2022-12-31T06:21:31.925Z,999.5
2022-12-31T06:22:33.901Z,999.6
2022-12-31T06:23:35.978Z,999.5
2022-12-31T06:24:37.880Z,999.5
2022-12-31T06:25:39.972Z,999.5
2022-12-31T06:26:41.910Z,999.5
2022-12-31T06:27:43.861Z,999.6
2022-12-31T06:28:45.890Z,999.6
2022-12-31T06:29:47.896Z,999.7
2022-12-31T06:30:50.038Z,999.7
2022-12-31T06:31:51.877Z,999.8
2022-12-31T06:32:53.841Z,999.7
2022-12-31T06:33:55.861Z,999.7
2022-12-31T06:34:56.915Z,999.7
2022-12-31T06:35:59.355Z,999.7
2022-12-31T06:37:00.866Z,999.7
2022-12-31T06:38:02.902Z,999.8
2022-12-31T06:39:04.872Z,999.7
2022-12-31T06:40:07.006Z,999.8
2022-12-31T06:41:08.984Z,999.7
2022-12-31T06:42:10.894Z,999.6
2022-12-31T06:43:12.939Z,999.6
2022-12-31T06:44:14.887Z,999.7
2022-12-31T06:45:16.955Z,999.6
2022-12-31T06:46:18.928Z,999.7
2022-12-31T06:47:19.896Z,999.6
2022-12-31T06:48:22.320Z,999.6
2022-12-31T06:49:23.947Z,999.7
2022-12-31T06:50:25.936Z,999.7
2022-12-31T06:51:27.929Z,999.6
2022-12-31T06:52:29.880Z,999.6
2022-12-31T06:53:30.964Z,999.5
2022-12-31T06:54:32.993Z,999.5
2022-12-31T06:55:34.849Z,999.6
2022-12-31T06:56:36.176Z,999.6
2022-12-31T06:57:37.959Z,999.5
2022-12-31T06:58:39.885Z,999.5
2022-12-31T06:59:41.925Z,999.6
2022-12-31T07:00:43.965Z,999.7
2022-12-31T07:01:46.422Z,999.7
2022-12-31T07:02:48.305Z,999.7
2022-12-31T07:03:49.898Z,999.7
2022-12-31T07:04:52.020Z,999.7
2022-12-31T07:05:53.880Z,999.7
2022-12-31T07:06:55.912Z,999.7
2022-12-31T07:07:57.932Z,999.8
2022-12-31T07:09:00.185Z,999.8
2022-12-31T07:10:01.972Z,999.9
2022-12-31T07:11:03.885Z,1000
2022-12-31T07:12:05.859Z,999.9
2022-12-31T07:13:07.304Z,999.9
2022-12-31T07:14:08.955Z,999.8
2022-12-31T07:15:10.918Z,999.8
2022-12-31T07:16:13.013Z,999.8
2022-12-31T07:17:14.975Z,999.7
2022-12-31T07:18:16.935Z,999.7
2022-12-31T07:19:18.909Z,999.7
2022-12-31T07:20:20.908Z,999.2
2022-12-31T07:21:22.976Z,999.7
2022-12-31T07:22:24.921Z,999.9
2022-12-31T07:23:26.940Z,999.9
2022-12-31T07:24:28.907Z,999.8
2022-12-31T07:25:29.995Z,999.8
2022-12-31T07:26:31.976Z,999.9
2022-12-31T07:27:33.916Z,999.9
2022-12-31T07:28:35.896Z,999.9
2022-12-31T07:29:37.927Z,999.9
2022-12-31T07:30:39.976Z,999.8
2022-12-31T07:31:41.953Z,999.8
2022-12-31T07:32:43.879Z,999.8
2022-12-31T07:33:44.917Z,999.8
2022-12-31T07:34:46.961Z,999.8
2022-12-31T07:35:48.958Z,999.8
2022-12-31T07:36:50.916Z,999.8
2022-12-31T07:37:52.956Z,999.9
2022-12-31T07:38:54.941Z,1000
2022-12-31T07:39:56.958Z,1000
2022-12-31T07:41:00.607Z,999.9
2022-12-31T07:42:01.736Z,999.9
2022-12-31T07:43:02.954Z,999.9
2022-12-31T07:44:04.957Z,999.9
2022-12-31T07:45:06.955Z,999.9
2022-12-31T07:46:09.049Z,999.9
2022-12-31T07:47:10.929Z,999.9
2022-12-31T07:48:12.916Z,999.9
2022-12-31T07:49:14.895Z,999.9
2022-12-31T07:50:16.956Z,999.9
2022-12-31T07:51:19.017Z,999.8
2022-12-31T07:52:21.054Z,999.8
2022-12-31T07:53:22.988Z,999.9
2022-12-31T07:54:24.961Z,999.8
2022-12-31T07:55:27.259Z,999.9
2022-12-31T07:56:29.016Z,999.9
2022-12-31T07:57:30.983Z,999.9
2022-12-31T07:58:32.955Z,999.9
2022-12-31T07:59:34.897Z,1000
2022-12-31T08:00:36.990Z,1000
2022-12-31T08:01:39.124Z,1000.1
2022-12-31T08:02:40.956Z,1000.1
2022-12-31T08:03:42.929Z,1000.1
2022-12-31T08:04:44.937Z,1000
2022-12-31T08:05:46.935Z,1000.1
2022-12-31T08:06:48.935Z,1000.1
2022-12-31T08:07:50.947Z,1000.1
2022-12-31T08:08:52.020Z,1000.1
2022-12-31T08:09:54.847Z,1000
2022-12-31T08:10:57.348Z,1000.3
2022-12-31T08:11:59.004Z,1000.2
2022-12-31T08:13:01.114Z,1000.1
2022-12-31T08:14:02.956Z,1000.1
2022-12-31T08:15:05.017Z,1000.1
2022-12-31T08:16:07.037Z,1000.1
2022-12-31T08:17:08.975Z,1000.1
2022-12-31T08:18:10.994Z,1000
2022-12-31T08:19:12.956Z,1000.1
2022-12-31T08:20:15.429Z,1000.1
2022-12-31T08:21:16.942Z,1000
2022-12-31T08:22:19.036Z,1000
2022-12-31T08:23:20.885Z,1000.1
2022-12-31T08:24:21.977Z,999.5
2022-12-31T08:25:24.059Z,999.9
2022-12-31T08:26:25.943Z,1000.1
2022-12-31T08:27:28.346Z,1000.1
2022-12-31T08:28:29.977Z,1000.1
2022-12-31T08:29:31.925Z,1000.1
2022-12-31T08:30:32.976Z,1000
2022-12-31T08:31:35.040Z,1000.1
2022-12-31T08:32:36.956Z,1000.2
2022-12-31T08:33:38.960Z,1000.1
2022-12-31T08:34:41.055Z,1000.1
2022-12-31T08:35:42.928Z,999.8
2022-12-31T08:36:44.937Z,1000.1
2022-12-31T08:37:46.976Z,1000.1
2022-12-31T08:38:48.919Z,1000.1
2022-12-31T08:39:50.983Z,1000.1
2022-12-31T08:40:52.976Z,1000.2
2022-12-31T08:41:54.913Z,1000.1
2022-12-31T08:42:55.935Z,1000.1
2022-12-31T08:43:57.955Z,1000.1
2022-12-31T08:45:00.015Z,1000
2022-12-31T08:46:02.074Z,1000.1
2022-12-31T08:47:03.895Z,1000.1
2022-12-31T08:48:04.998Z,1000.1
2022-12-31T08:49:06.984Z,1000
2022-12-31T08:50:09.038Z,1000.1
2022-12-31T08:51:11.005Z,1000
2022-12-31T08:52:12.977Z,1000
2022-12-31T08:53:14.996Z,1000
2022-12-31T08:54:16.954Z,1000
2022-12-31T08:55:18.919Z,1000
2022-12-31T08:56:20.086Z,1000
2022-12-31T08:57:22.001Z,1000.1
2022-12-31T08:58:24.458Z,1000.1
2022-12-31T08:59:26.277Z,1000
2022-12-31T09:00:28.138Z,1000
2022-12-31T09:01:30.136Z,1000
2022-12-31T09:02:32.038Z,999.9
2022-12-31T09:03:33.979Z,1000
2022-12-31T09:04:36.086Z,999.9
2022-12-31T09:05:37.939Z,999.9
2022-12-31T09:06:39.995Z,999.9
2022-12-31T09:07:43.055Z,999.9
2022-12-31T09:08:45.177Z,999.8
2022-12-31T09:09:47.944Z,999.8
2022-12-31T09:10:49.958Z,999.8
2022-12-31T09:11:51.997Z,999.8
2022-12-31T09:12:54.024Z,999.9
2022-12-31T09:13:55.995Z,999.9
2022-12-31T09:14:57.980Z,999.9
2022-12-31T09:15:59.939Z,999.9
2022-12-31T09:17:01.059Z,1000.1
2022-12-31T09:18:03.088Z,1000.1
2022-12-31T09:19:04.958Z,1000.1
2022-12-31T09:20:06.017Z,1000.1
2022-12-31T09:21:07.996Z,1000.1
2022-12-31T09:22:12.697Z,1000
2022-12-31T09:23:13.952Z,1000
2022-12-31T09:24:16.101Z,1000
2022-12-31T09:25:18.035Z,1000
2022-12-31T09:26:20.052Z,1000
2022-12-31T09:27:27.377Z,999.9
2022-12-31T09:28:24.052Z,999.9
2022-12-31T09:29:25.975Z,999.9
2022-12-31T09:30:28.015Z,1000
2022-12-31T09:31:30.053Z,1000
2022-12-31T09:32:32.116Z,1000
2022-12-31T09:33:34.261Z,999.9
2022-12-31T09:34:36.438Z,999.9
2022-12-31T09:35:38.897Z,1000
2022-12-31T09:36:39.978Z,1000
2022-12-31T09:37:42.039Z,1000
2022-12-31T09:38:44.095Z,999.9
2022-12-31T09:39:45.997Z,999.9
2022-12-31T09:40:48.552Z,1000
2022-12-31T09:41:50.216Z,999.4
2022-12-31T09:42:52.057Z,999.8
2022-12-31T09:43:57.437Z,999.9
2022-12-31T09:44:55.999Z,999.9
2022-12-31T09:45:56.999Z,999.9
2022-12-31T09:46:58.983Z,999.9
2022-12-31T09:48:01.058Z,999.9
2022-12-31T09:49:02.996Z,999.9
2022-12-31T09:50:05.030Z,999.9
2022-12-31T09:51:06.998Z,999.9
2022-12-31T09:52:09.029Z,999.9
2022-12-31T09:53:11.033Z,999.8
2022-12-31T09:54:12.924Z,1000
2022-12-31T09:55:14.970Z,1000
2022-12-31T09:56:17.984Z,999.9
2022-12-31T09:57:20.057Z,999.8
2022-12-31T09:58:21.928Z,999.9
2022-12-31T09:59:23.000Z,999.9
2022-12-31T10:00:24.031Z,999.9
2022-12-31T10:01:26.174Z,999.9
2022-12-31T10:02:28.216Z,999.9
2022-12-31T10:03:29.999Z,999.9
2022-12-31T10:04:31.022Z,999.9
2022-12-31T10:05:33.055Z,999.9
2022-12-31T10:06:35.115Z,999.9
2022-12-31T10:07:37.083Z,999.6
2022-12-31T10:08:39.184Z,999.8
2022-12-31T10:09:41.000Z,999.8
2022-12-31T10:10:41.975Z,999.9
2022-12-31T10:11:42.937Z,999.9
2022-12-31T10:12:43.935Z,999.7
2022-12-31T10:13:45.410Z,999.9
2022-12-31T10:14:47.652Z,999.6
2022-12-31T10:15:48.996Z,999.8
2022-12-31T10:16:51.081Z,999.8
2022-12-31T10:17:53.075Z,999.9
2022-12-31T10:18:55.059Z,999.8
2022-12-31T10:19:57.182Z,999.9
2022-12-31T10:20:59.059Z,1000
2022-12-31T10:22:01.009Z,999.8
2022-12-31T10:23:03.021Z,999.7
2022-12-31T10:24:04.995Z,999.7
2022-12-31T10:25:06.025Z,999.8
2022-12-31T10:26:08.057Z,999.7
2022-12-31T10:27:10.718Z,999.7
2022-12-31T10:28:12.083Z,999.6
2022-12-31T10:29:14.083Z,999.7
2022-12-31T10:30:16.111Z,999.7
2022-12-31T10:31:18.028Z,999.7
2022-12-31T10:32:19.990Z,999.7
2022-12-31T10:33:21.994Z,999.7
2022-12-31T10:34:24.179Z,999.8
2022-12-31T10:35:25.936Z,999.8
2022-12-31T10:36:27.093Z,999.7
2022-12-31T10:37:29.083Z,999.7
2022-12-31T10:38:31.037Z,999.7
2022-12-31T10:39:33.025Z,999.7
2022-12-31T10:40:35.055Z,999.6
2022-12-31T10:41:37.006Z,999.6
2022-12-31T10:42:39.038Z,999.6
2022-12-31T10:43:41.097Z,999.7
2022-12-31T10:44:43.020Z,999.6
2022-12-31T10:45:45.511Z,999.6
2022-12-31T10:46:47.732Z,999.7
2022-12-31T10:47:49.245Z,999.6
2022-12-31T10:48:51.236Z,999.6
2022-12-31T10:49:53.008Z,999.6
2022-12-31T10:50:55.023Z,999.5
2022-12-31T10:51:57.343Z,999.8
2022-12-31T10:52:59.988Z,999.7
2022-12-31T10:54:01.028Z,999.6
2022-12-31T10:55:02.995Z,999.8
2022-12-31T10:57:05.997Z,999.6
2022-12-31T10:58:06.989Z,999.6
2022-12-31T10:59:09.649Z,999.6
2022-12-31T11:00:11.081Z,999.5
2022-12-31T11:01:13.136Z,999.7
2022-12-31T11:02:14.170Z,999.7
2022-12-31T11:03:16.029Z,999.6
2022-12-31T11:04:18.001Z,999.6
2022-12-31T11:05:20.055Z,999.8
2022-12-31T11:06:22.023Z,999.6
2022-12-31T11:07:23.996Z,999.7
2022-12-31T11:08:26.015Z,999.6
2022-12-31T11:09:32.791Z,999.6
2022-12-31T11:10:29.982Z,999.6
2022-12-31T11:11:32.092Z,999.6
2022-12-31T11:12:34.076Z,999.7
2022-12-31T11:13:36.077Z,999.7
2022-12-31T11:14:37.979Z,999.6
2022-12-31T11:15:39.089Z,999.6
2022-12-31T11:16:40.024Z,999.5
2022-12-31T11:17:41.365Z,999.5
2022-12-31T11:18:43.224Z,999.5
2022-12-31T11:19:45.060Z,999.5
2022-12-31T11:20:47.056Z,999.5
2022-12-31T11:21:49.014Z,999.5
2022-12-31T11:22:51.008Z,999.5
2022-12-31T11:23:52.114Z,999.5
2022-12-31T11:24:54.075Z,999.5
2022-12-31T11:25:56.255Z,999.5
2022-12-31T11:26:58.076Z,999.4
2022-12-31T11:28:00.079Z,999.5
2022-12-31T11:29:02.199Z,999.4
2022-12-31T11:30:04.106Z,999.4
2022-12-31T11:31:06.130Z,999.4
2022-12-31T11:32:08.164Z,999.5
2022-12-31T11:33:10.080Z,999.4
2022-12-31T11:34:12.128Z,999.3
2022-12-31T11:35:14.144Z,999.3
2022-12-31T11:36:16.075Z,999.3
2022-12-31T11:37:18.030Z,999.3
2022-12-31T11:38:20.054Z,999.4
2022-12-31T11:39:27.398Z,999.3
2022-12-31T11:40:24.155Z,999.4
2022-12-31T11:41:26.078Z,999.4
2022-12-31T11:42:28.096Z,999.4
2022-12-31T11:43:30.400Z,999.4
2022-12-31T11:44:32.116Z,999.3
2022-12-31T11:45:34.024Z,999.4
2022-12-31T11:46:36.172Z,999.4
2022-12-31T11:47:44.703Z,999.4
2022-12-31T11:48:40.073Z,999.4
2022-12-31T11:49:42.435Z,999.3
2022-12-31T11:50:44.070Z,999.3
2022-12-31T11:51:50.297Z,998.9
2022-12-31T11:52:48.517Z,999.1
2022-12-31T11:53:49.966Z,999.3
2022-12-31T11:54:52.070Z,999.2
2022-12-31T11:55:54.137Z,999.2
2022-12-31T11:56:56.223Z,999.3
2022-12-31T11:57:58.239Z,999.3
2022-12-31T11:59:02.499Z,999.2
2022-12-31T12:00:02.082Z,999.3
2022-12-31T12:01:04.837Z,999.3
2022-12-31T12:02:06.061Z,999.3
2022-12-31T12:03:08.137Z,999.2
2022-12-31T12:04:10.325Z,999.2
2022-12-31T12:05:12.001Z,999.3
2022-12-31T12:06:14.073Z,999.2
2022-12-31T12:07:16.023Z,999.2
2022-12-31T12:08:18.086Z,999.2
2022-12-31T12:09:20.013Z,999.2
2022-12-31T12:10:22.162Z,999.2
2022-12-31T12:11:24.158Z,999.2
2022-12-31T12:12:26.084Z,999.2
2022-12-31T12:13:28.275Z,999.3
2022-12-31T12:14:30.466Z,999.2
2022-12-31T12:15:32.070Z,999.2
2022-12-31T12:16:34.132Z,999.2
2022-12-31T12:17:36.116Z,999.3
2022-12-31T12:18:38.237Z,999.3
2022-12-31T12:19:40.096Z,999.2
2022-12-31T12:20:42.111Z,999.3
2022-12-31T12:21:46.080Z,999.2
2022-12-31T12:22:49.553Z,999.3
2022-12-31T12:23:50.076Z,999.4
2022-12-31T12:24:52.079Z,999.4
2022-12-31T12:25:54.847Z,999.4
2022-12-31T12:26:56.335Z,999.3
2022-12-31T12:27:58.105Z,999.5
2022-12-31T12:29:00.065Z,999.5
2022-12-31T12:30:02.480Z,999.4
2022-12-31T12:31:04.178Z,999.4
2022-12-31T12:32:06.026Z,999.4
2022-12-31T12:33:08.157Z,999.4
2022-12-31T12:34:10.102Z,999.5
2022-12-31T12:35:12.074Z,999.5
2022-12-31T12:36:13.084Z,999.5
2022-12-31T12:37:14.974Z,999.5
2022-12-31T12:38:16.282Z,999.4
2022-12-31T12:39:18.196Z,999.5
2022-12-31T12:40:20.079Z,999.5
2022-12-31T12:41:22.376Z,999.4
2022-12-31T12:42:24.141Z,999.4
2022-12-31T12:43:26.083Z,999.5
2022-12-31T12:44:28.104Z,999.4
2022-12-31T12:45:30.647Z,999.4
2022-12-31T12:46:32.178Z,999.4
2022-12-31T12:47:34.217Z,999.4
2022-12-31T12:48:36.155Z,999.5
2022-12-31T12:49:38.452Z,999.4
2022-12-31T12:50:40.115Z,999.5
2022-12-31T12:51:42.052Z,999.5
2022-12-31T12:52:44.008Z,999.5
2022-12-31T12:53:46.103Z,999.5
2022-12-31T12:54:48.056Z,999.5
2022-12-31T12:55:50.054Z,999.5
2022-12-31T12:56:52.083Z,999.5
2022-12-31T12:57:55.032Z,999.5
2022-12-31T12:58:56.330Z,999.5
2022-12-31T12:59:58.115Z,999.5
2022-12-31T13:01:00.239Z,999.5
2022-12-31T13:02:02.431Z,999.5
2022-12-31T13:03:04.226Z,999.5
2022-12-31T13:04:35.766Z,999.5
2022-12-31T13:05:08.196Z,999.5
2022-12-31T13:06:10.068Z,999.6
2022-12-31T13:07:12.152Z,999.5
2022-12-31T13:08:14.094Z,999.5
2022-12-31T13:09:16.075Z,999.6
2022-12-31T13:10:18.105Z,999.6
2022-12-31T13:11:20.038Z,999.5
2022-12-31T13:12:22.113Z,999.6
2022-12-31T13:13:25.369Z,999.6
2022-12-31T13:14:26.152Z,999.6
2022-12-31T13:15:28.103Z,999.6
2022-12-31T13:16:30.153Z,999.7
2022-12-31T13:17:32.121Z,999.7
2022-12-31T13:18:34.121Z,999.6
2022-12-31T13:19:36.123Z,999.6
2022-12-31T13:20:38.159Z,999.6
2022-12-31T13:21:40.099Z,999.7
2022-12-31T13:22:42.169Z,999.6
2022-12-31T13:23:44.260Z,999.4